KHWDKSAC

Guest
Details From KHWD - Hayward Executive
To KSAC - Sacramento Executive
Flight Number -
Tags Routegen
Created
Modified
Stats Distance 59 nm / 109 km
Max Altitude 0 ft / 0 m
Waypoints 2
Social Downloads 6
Likes 0
Share VATSIM

Download

Looking for another format? Having issues loading an existing format? Contact us
Advertisement - Login to hide

Notes

None

Route

KHWD KSAC

ID Type Via Altitude (ft/m) Position (lat/lon) Dist (leg/tot) Name
O KHWD APT - 0 / 0 37.66204 / -122.12979 - / 0 nm
O KSAC APT - 0 / 0 38.50520 / -121.50073 58 / 58 nm

Altitude Profile

Advertisement - Login to hide

KHWD

Details ICAO KHWD (HWD)
Name Hayward Executive
Region United States
Timezone America/Los_Angeles (UTC-7.0)
Stats Elevation 52 ft / 16 m (AMSL)
Location 37.659300° -122.122000°
Runways 2
Magnetic Variation 13.353° E

METAR

KHWD 190054Z 30009KT 10SM CLR 19/12 A3005 RMK AO2 SLP185 T01890117

Decode

TAF

Not found

Departure Runways

ID Width Length Bearing (true/mag) Surface Threshold Overrun Markings Lighting
10L 75 ft / 23 m 3,104 ft / 946 m 119.95° / 106.60° ASPHALT 0 ft / 0 m 0 ft / 0 m APP EDGE THRESHOLD
10R 151 ft / 46 m 5,688 ft / 1,734 m 119.95° / 106.60° ASPHALT 817 ft / 249 m 0 ft / 0 m APP EDGE THRESHOLD REIL-OMNI
28L 151 ft / 46 m 5,688 ft / 1,734 m 299.96° / 286.61° ASPHALT 676 ft / 206 m 0 ft / 0 m PREC-APP EDGE THRESHOLD REIL-OMNI
28R 75 ft / 23 m 3,104 ft / 946 m 299.96° / 286.61° ASPHALT 0 ft / 0 m 0 ft / 0 m APP EDGE THRESHOLD

KSAC

Details ICAO KSAC (SAC)
Name Sacramento Executive
Region United States
Timezone America/Los_Angeles (UTC-7.0)
Stats Elevation 24 ft / 7 m (AMSL)
Location 38.512600° -121.493000°
Runways 3
Magnetic Variation 13.433° E

METAR

KSAC 190053Z 00000KT 10SM CLR 24/05 A3003 RMK AO2 SLP169 T02440050

Decode

TAF

KSAC 182331Z 1900/1924 VRB04KT P6SM SKC

Decode

Destination Runways

ID Width Length Bearing (true/mag) Surface Threshold Overrun Markings Lighting
02 151 ft / 46 m 5,507 ft / 1,679 m 33.00° / 19.57° ASPHALT 0 ft / 0 m 0 ft / 0 m PREC-APP EDGE THRESHOLD MALSR
12 98 ft / 30 m 3,834 ft / 1,169 m 133.23° / 119.80° ASPHALT 0 ft / 0 m 699 ft / 213 m VISUAL EDGE THRESHOLD REIL-OMNI
16 151 ft / 46 m 3,492 ft / 1,064 m 179.61° / 166.18° ASPHALT 0 ft / 0 m 0 ft / 0 m VISUAL
20 151 ft / 46 m 5,507 ft / 1,679 m 213.01° / 199.58° ASPHALT 0 ft / 0 m 0 ft / 0 m PREC-APP EDGE THRESHOLD REIL-OMNI
30 98 ft / 30 m 3,834 ft / 1,169 m 313.24° / 299.80° ASPHALT 0 ft / 0 m 0 ft / 0 m VISUAL EDGE THRESHOLD REIL-OMNI
34 151 ft / 46 m 3,492 ft / 1,064 m 359.61° / 346.18° ASPHALT 0 ft / 0 m 0 ft / 0 m VISUAL

Approach Navaids

Runway Type Ident Frequency Range Bearing (true/mag) Slope Elevation
02 MM MM - - 33.01° / 19.57 ° - 24 ft / 7 m (AMSL)
02 OM OM - - 33.01° / 19.57 ° - 5 ft / 2 m (AMSL)
02 LOC-ILS ISAC 110.30 MHz 18 nm / 33 km 33.01° / 19.57 ° - 23 ft / 7 m (AMSL)
02 GS ISAC 110.30 MHz 10 nm / 19 km 33.01° / 19.58 ° 3.00° 18 ft / 5 m (AMSL)

Popular Alternatives